sensor_id;sensor_type;location;lat;lon;timestamp;P1;durP1;ratioP1;P2;durP2;ratioP2
45388;SDS011;31127;52.078;4.370;2023-05-07T00:01:58;33.65;;;16.02;;
45388;SDS011;31127;52.078;4.370;2023-05-07T00:06:54;30.05;;;16.63;;
45388;SDS011;31127;52.078;4.370;2023-05-07T00:11:51;28.85;;;15.27;;
45388;SDS011;31127;52.078;4.370;2023-05-07T00:16:47;31.25;;;16.98;;
45388;SDS011;31127;52.078;4.370;2023-05-07T00:21:43;38.75;;;16.73;;
45388;SDS011;31127;52.078;4.370;2023-05-07T00:26:39;34.42;;;17.00;;
45388;SDS011;31127;52.078;4.370;2023-05-07T00:31:35;32.47;;;16.88;;
45388;SDS011;31127;52.078;4.370;2023-05-07T00:36:30;36.80;;;17.40;;
45388;SDS011;31127;52.078;4.370;2023-05-07T00:41:26;30.73;;;16.88;;
45388;SDS011;31127;52.078;4.370;2023-05-07T00:46:21;36.25;;;17.08;;
45388;SDS011;31127;52.078;4.370;2023-05-07T00:51:18;33.25;;;16.67;;
45388;SDS011;31127;52.078;4.370;2023-05-07T00:56:13;32.35;;;17.15;;
45388;SDS011;31127;52.078;4.370;2023-05-07T01:01:09;32.95;;;15.52;;
45388;SDS011;31127;52.078;4.370;2023-05-07T01:06:24;32.88;;;15.88;;
45388;SDS011;31127;52.078;4.370;2023-05-07T01:11:24;30.63;;;16.23;;
45388;SDS011;31127;52.078;4.370;2023-05-07T01:16:20;32.05;;;16.40;;
45388;SDS011;31127;52.078;4.370;2023-05-07T01:21:17;33.17;;;17.13;;
45388;SDS011;31127;52.078;4.370;2023-05-07T01:26:34;35.58;;;16.92;;
45388;SDS011;31127;52.078;4.370;2023-05-07T01:31:30;34.63;;;18.33;;
45388;SDS011;31127;52.078;4.370;2023-05-07T01:36:25;38.13;;;18.38;;
45388;SDS011;31127;52.078;4.370;2023-05-07T01:41:22;34.95;;;17.33;;
45388;SDS011;31127;52.078;4.370;2023-05-07T01:46:18;37.47;;;17.60;;
45388;SDS011;31127;52.078;4.370;2023-05-07T01:51:14;38.72;;;18.08;;
45388;SDS011;31127;52.078;4.370;2023-05-07T01:56:09;34.97;;;16.27;;
45388;SDS011;31127;52.078;4.370;2023-05-07T02:01:07;31.65;;;16.35;;
45388;SDS011;31127;52.078;4.370;2023-05-07T02:06:03;31.92;;;17.40;;
45388;SDS011;31127;52.078;4.370;2023-05-07T02:11:02;32.85;;;16.35;;
45388;SDS011;31127;52.078;4.370;2023-05-07T02:15:59;35.17;;;16.45;;
45388;SDS011;31127;52.078;4.370;2023-05-07T02:20:55;35.78;;;16.58;;
45388;SDS011;31127;52.078;4.370;2023-05-07T02:25:51;34.60;;;16.33;;
45388;SDS011;31127;52.078;4.370;2023-05-07T02:31:07;30.88;;;14.25;;
45388;SDS011;31127;52.078;4.370;2023-05-07T02:36:25;29.17;;;14.80;;
45388;SDS011;31127;52.078;4.370;2023-05-07T02:41:31;30.95;;;14.93;;
45388;SDS011;31127;52.078;4.370;2023-05-07T02:46:27;25.10;;;14.00;;
45388;SDS011;31127;52.078;4.370;2023-05-07T02:51:29;25.83;;;12.40;;
45388;SDS011;31127;52.078;4.370;2023-05-07T02:56:28;27.48;;;14.00;;
45388;SDS011;31127;52.078;4.370;2023-05-07T03:01:23;22.40;;;12.85;;
45388;SDS011;31127;52.078;4.370;2023-05-07T03:06:33;29.17;;;14.70;;
45388;SDS011;31127;52.078;4.370;2023-05-07T03:11:28;24.45;;;12.77;;
45388;SDS011;31127;52.078;4.370;2023-05-07T03:16:24;22.92;;;12.40;;
45388;SDS011;31127;52.078;4.370;2023-05-07T03:21:19;22.55;;;12.27;;
45388;SDS011;31127;52.078;4.370;2023-05-07T03:26:17;25.77;;;12.40;;
45388;SDS011;31127;52.078;4.370;2023-05-07T03:31:13;21.33;;;12.50;;
45388;SDS011;31127;52.078;4.370;2023-05-07T03:36:09;23.33;;;12.75;;
45388;SDS011;31127;52.078;4.370;2023-05-07T03:41:25;19.55;;;11.75;;
45388;SDS011;31127;52.078;4.370;2023-05-07T03:46:21;22.02;;;11.73;;
45388;SDS011;31127;52.078;4.370;2023-05-07T03:51:17;22.80;;;13.30;;
45388;SDS011;31127;52.078;4.370;2023-05-07T03:56:13;20.77;;;12.80;;
45388;SDS011;31127;52.078;4.370;2023-05-07T04:01:10;21.20;;;12.25;;
45388;SDS011;31127;52.078;4.370;2023-05-07T04:06:05;20.17;;;11.13;;
45388;SDS011;31127;52.078;4.370;2023-05-07T04:11:21;24.58;;;12.65;;
45388;SDS011;31127;52.078;4.370;2023-05-07T04:16:17;18.88;;;11.48;;
45388;SDS011;31127;52.078;4.370;2023-05-07T04:21:16;19.50;;;12.65;;
45388;SDS011;31127;52.078;4.370;2023-05-07T04:26:12;19.95;;;12.45;;
45388;SDS011;31127;52.078;4.370;2023-05-07T04:31:11;22.90;;;11.50;;
45388;SDS011;31127;52.078;4.370;2023-05-07T04:36:07;16.40;;;11.27;;
45388;SDS011;31127;52.078;4.370;2023-05-07T04:41:09;20.85;;;11.23;;
45388;SDS011;31127;52.078;4.370;2023-05-07T04:46:09;22.33;;;11.13;;
45388;SDS011;31127;52.078;4.370;2023-05-07T04:51:26;23.60;;;12.98;;
45388;SDS011;31127;52.078;4.370;2023-05-07T04:56:23;16.67;;;10.85;;
45388;SDS011;31127;52.078;4.370;2023-05-07T05:01:19;18.90;;;10.40;;
45388;SDS011;31127;52.078;4.370;2023-05-07T05:06:15;20.50;;;11.10;;
45388;SDS011;31127;52.078;4.370;2023-05-07T05:11:10;19.35;;;11.27;;
45388;SDS011;31127;52.078;4.370;2023-05-07T05:16:06;17.77;;;10.07;;
45388;SDS011;31127;52.078;4.370;2023-05-07T05:21:02;16.80;;;10.35;;
45388;SDS011;31127;52.078;4.370;2023-05-07T05:25:58;16.90;;;10.27;;
45388;SDS011;31127;52.078;4.370;2023-05-07T05:30:57;16.58;;;10.32;;
45388;SDS011;31127;52.078;4.370;2023-05-07T05:35:55;14.43;;;10.07;;
45388;SDS011;31127;52.078;4.370;2023-05-07T05:40:51;16.48;;;9.88;;
45388;SDS011;31127;52.078;4.370;2023-05-07T05:45:47;14.40;;;9.02;;
45388;SDS011;31127;52.078;4.370;2023-05-07T05:51:03;13.23;;;10.23;;
45388;SDS011;31127;52.078;4.370;2023-05-07T05:55:58;16.15;;;10.52;;
45388;SDS011;31127;52.078;4.370;2023-05-07T06:00:54;15.48;;;10.02;;
45388;SDS011;31127;52.078;4.370;2023-05-07T06:05:54;14.73;;;10.07;;
45388;SDS011;31127;52.078;4.370;2023-05-07T06:10:51;16.33;;;9.57;;
45388;SDS011;31127;52.078;4.370;2023-05-07T06:15:47;14.00;;;9.70;;
45388;SDS011;31127;52.078;4.370;2023-05-07T06:20:44;13.93;;;9.20;;
45388;SDS011;31127;52.078;4.370;2023-05-07T06:25:50;14.60;;;9.07;;
45388;SDS011;31127;52.078;4.370;2023-05-07T06:30:48;13.68;;;9.02;;
45388;SDS011;31127;52.078;4.370;2023-05-07T06:35:46;16.10;;;9.40;;
45388;SDS011;31127;52.078;4.370;2023-05-07T06:40:42;13.88;;;9.30;;
45388;SDS011;31127;52.078;4.370;2023-05-07T06:45:37;12.35;;;9.25;;
45388;SDS011;31127;52.078;4.370;2023-05-07T06:50:34;14.82;;;9.23;;
45388;SDS011;31127;52.078;4.370;2023-05-07T06:55:30;17.83;;;9.85;;
45388;SDS011;31127;52.078;4.370;2023-05-07T07:00:28;12.75;;;9.68;;
45388;SDS011;31127;52.078;4.370;2023-05-07T07:05:25;12.85;;;9.07;;
45388;SDS011;31127;52.078;4.370;2023-05-07T07:10:21;12.63;;;9.25;;
45388;SDS011;31127;52.078;4.370;2023-05-07T07:15:19;17.52;;;10.88;;
45388;SDS011;31127;52.078;4.370;2023-05-07T07:20:16;16.23;;;9.63;;
45388;SDS011;31127;52.078;4.370;2023-05-07T07:25:13;16.10;;;9.98;;
45388;SDS011;31127;52.078;4.370;2023-05-07T07:30:09;14.60;;;10.18;;
45388;SDS011;31127;52.078;4.370;2023-05-07T07:35:08;13.75;;;9.65;;
45388;SDS011;31127;52.078;4.370;2023-05-07T07:40:05;14.60;;;9.27;;
45388;SDS011;31127;52.078;4.370;2023-05-07T07:45:02;14.27;;;9.60;;
45388;SDS011;31127;52.078;4.370;2023-05-07T07:50:02;17.73;;;9.23;;
45388;SDS011;31127;52.078;4.370;2023-05-07T07:55:00;17.55;;;10.60;;
45388;SDS011;31127;52.078;4.370;2023-05-07T07:59:57;12.88;;;8.10;;
45388;SDS011;31127;52.078;4.370;2023-05-07T08:04:52;12.32;;;8.15;;
45388;SDS011;31127;52.078;4.370;2023-05-07T08:09:48;14.32;;;8.68;;
45388;SDS011;31127;52.078;4.370;2023-05-07T08:14:47;12.63;;;7.93;;
45388;SDS011;31127;52.078;4.370;2023-05-07T08:19:42;10.98;;;7.78;;
45388;SDS011;31127;52.078;4.370;2023-05-07T08:24:41;12.48;;;8.40;;
45388;SDS011;31127;52.078;4.370;2023-05-07T08:29:37;13.40;;;8.38;;
45388;SDS011;31127;52.078;4.370;2023-05-07T08:34:33;9.00;;;6.22;;
45388;SDS011;31127;52.078;4.370;2023-05-07T08:39:32;12.13;;;7.75;;
45388;SDS011;31127;52.078;4.370;2023-05-07T08:44:28;12.20;;;8.05;;
45388;SDS011;31127;52.078;4.370;2023-05-07T08:49:47;12.95;;;8.30;;
45388;SDS011;31127;52.078;4.370;2023-05-07T08:54:43;12.60;;;8.00;;
45388;SDS011;31127;52.078;4.370;2023-05-07T08:59:56;10.30;;;7.05;;
45388;SDS011;31127;52.078;4.370;2023-05-07T09:04:52;11.93;;;7.15;;
45388;SDS011;31127;52.078;4.370;2023-05-07T09:09:48;9.05;;;6.97;;
45388;SDS011;31127;52.078;4.370;2023-05-07T09:14:45;9.95;;;6.00;;
45388;SDS011;31127;52.078;4.370;2023-05-07T09:19:43;8.77;;;5.47;;
45388;SDS011;31127;52.078;4.370;2023-05-07T09:24:46;11.15;;;5.18;;
45388;SDS011;31127;52.078;4.370;2023-05-07T09:29:43;10.65;;;5.28;;
45388;SDS011;31127;52.078;4.370;2023-05-07T09:34:38;11.50;;;5.53;;
45388;SDS011;31127;52.078;4.370;2023-05-07T09:39:55;8.55;;;5.70;;
45388;SDS011;31127;52.078;4.370;2023-05-07T09:44:53;14.88;;;10.27;;
45388;SDS011;31127;52.078;4.370;2023-05-07T09:49:54;8.75;;;5.82;;
45388;SDS011;31127;52.078;4.370;2023-05-07T09:54:51;9.45;;;5.80;;
45388;SDS011;31127;52.078;4.370;2023-05-07T09:59:51;13.25;;;7.80;;
45388;SDS011;31127;52.078;4.370;2023-05-07T10:04:49;7.30;;;5.60;;
45388;SDS011;31127;52.078;4.370;2023-05-07T10:09:49;7.20;;;5.75;;
45388;SDS011;31127;52.078;4.370;2023-05-07T10:15:11;10.43;;;6.75;;
45388;SDS011;31127;52.078;4.370;2023-05-07T10:20:09;9.07;;;5.88;;
45388;SDS011;31127;52.078;4.370;2023-05-07T10:25:30;47.60;;;26.85;;
45388;SDS011;31127;52.078;4.370;2023-05-07T10:30:40;14.23;;;8.32;;
45388;SDS011;31127;52.078;4.370;2023-05-07T10:35:44;10.27;;;7.93;;
45388;SDS011;31127;52.078;4.370;2023-05-07T10:40:42;12.13;;;6.22;;
45388;SDS011;31127;52.078;4.370;2023-05-07T10:45:38;12.98;;;7.20;;
45388;SDS011;31127;52.078;4.370;2023-05-07T10:50:37;11.00;;;7.10;;
45388;SDS011;31127;52.078;4.370;2023-05-07T10:55:34;12.52;;;7.68;;
45388;SDS011;31127;52.078;4.370;2023-05-07T11:00:44;11.70;;;8.63;;
45388;SDS011;31127;52.078;4.370;2023-05-07T11:05:48;11.82;;;8.40;;
45388;SDS011;31127;52.078;4.370;2023-05-07T11:11:08;10.98;;;6.80;;
45388;SDS011;31127;52.078;4.370;2023-05-07T11:16:18;12.77;;;7.05;;
45388;SDS011;31127;52.078;4.370;2023-05-07T11:21:31;10.98;;;7.30;;
45388;SDS011;31127;52.078;4.370;2023-05-07T11:26:43;11.48;;;6.50;;
45388;SDS011;31127;52.078;4.370;2023-05-07T11:31:40;16.63;;;8.73;;
45388;SDS011;31127;52.078;4.370;2023-05-07T11:36:37;24.88;;;10.90;;
45388;SDS011;31127;52.078;4.370;2023-05-07T11:41:37;16.77;;;9.85;;
45388;SDS011;31127;52.078;4.370;2023-05-07T11:46:33;20.42;;;10.32;;
45388;SDS011;31127;52.078;4.370;2023-05-07T11:51:28;21.23;;;10.68;;
45388;SDS011;31127;52.078;4.370;2023-05-07T11:56:24;22.40;;;10.83;;
45388;SDS011;31127;52.078;4.370;2023-05-07T12:01:19;18.52;;;10.35;;
45388;SDS011;31127;52.078;4.370;2023-05-07T12:06:15;18.02;;;10.18;;
45388;SDS011;31127;52.078;4.370;2023-05-07T12:11:24;20.30;;;10.48;;
45388;SDS011;31127;52.078;4.370;2023-05-07T12:16:20;17.45;;;10.93;;
45388;SDS011;31127;52.078;4.370;2023-05-07T12:21:36;21.90;;;12.10;;
45388;SDS011;31127;52.078;4.370;2023-05-07T12:26:31;22.50;;;13.52;;
45388;SDS011;31127;52.078;4.370;2023-05-07T12:31:30;22.85;;;13.43;;
45388;SDS011;31127;52.078;4.370;2023-05-07T12:36:25;19.88;;;13.05;;
45388;SDS011;31127;52.078;4.370;2023-05-07T12:41:21;18.48;;;12.05;;
45388;SDS011;31127;52.078;4.370;2023-05-07T12:46:20;26.80;;;12.20;;
45388;SDS011;31127;52.078;4.370;2023-05-07T12:51:16;23.03;;;11.77;;
45388;SDS011;31127;52.078;4.370;2023-05-07T12:56:11;19.17;;;13.43;;
45388;SDS011;31127;52.078;4.370;2023-05-07T13:01:07;21.08;;;13.30;;
45388;SDS011;31127;52.078;4.370;2023-05-07T13:06:05;19.88;;;12.40;;
45388;SDS011;31127;52.078;4.370;2023-05-07T13:11:02;21.80;;;11.65;;
45388;SDS011;31127;52.078;4.370;2023-05-07T13:15:59;22.42;;;12.60;;
45388;SDS011;31127;52.078;4.370;2023-05-07T13:20:55;19.40;;;11.75;;
45388;SDS011;31127;52.078;4.370;2023-05-07T13:25:50;20.55;;;11.10;;
45388;SDS011;31127;52.078;4.370;2023-05-07T13:30:47;22.48;;;11.32;;
45388;SDS011;31127;52.078;4.370;2023-05-07T13:36:03;17.27;;;10.77;;
45388;SDS011;31127;52.078;4.370;2023-05-07T13:41:01;19.05;;;10.25;;
45388;SDS011;31127;52.078;4.370;2023-05-07T13:45:56;17.15;;;11.30;;
45388;SDS011;31127;52.078;4.370;2023-05-07T13:50:51;18.75;;;9.95;;
45388;SDS011;31127;52.078;4.370;2023-05-07T13:55:47;17.25;;;9.77;;
45388;SDS011;31127;52.078;4.370;2023-05-07T14:00:43;14.57;;;9.48;;
45388;SDS011;31127;52.078;4.370;2023-05-07T14:05:39;15.98;;;9.65;;
45388;SDS011;31127;52.078;4.370;2023-05-07T14:10:34;19.27;;;9.88;;
45388;SDS011;31127;52.078;4.370;2023-05-07T14:15:30;16.58;;;9.00;;
45388;SDS011;31127;52.078;4.370;2023-05-07T14:20:27;15.75;;;8.18;;
45388;SDS011;31127;52.078;4.370;2023-05-07T14:25:23;13.52;;;6.88;;
45388;SDS011;31127;52.078;4.370;2023-05-07T14:30:20;18.40;;;10.57;;
45388;SDS011;31127;52.078;4.370;2023-05-07T14:35:17;14.82;;;11.52;;
45388;SDS011;31127;52.078;4.370;2023-05-07T14:40:13;20.80;;;11.60;;
45388;SDS011;31127;52.078;4.370;2023-05-07T14:45:10;19.02;;;12.98;;
45388;SDS011;31127;52.078;4.370;2023-05-07T14:50:06;17.23;;;11.95;;
45388;SDS011;31127;52.078;4.370;2023-05-07T14:55:01;14.88;;;9.43;;
45388;SDS011;31127;52.078;4.370;2023-05-07T14:59:57;17.08;;;9.80;;
45388;SDS011;31127;52.078;4.370;2023-05-07T15:04:53;17.42;;;8.73;;
45388;SDS011;31127;52.078;4.370;2023-05-07T15:09:49;15.70;;;9.38;;
45388;SDS011;31127;52.078;4.370;2023-05-07T15:14:45;14.88;;;7.63;;
45388;SDS011;31127;52.078;4.370;2023-05-07T15:20:01;10.95;;;5.55;;
45388;SDS011;31127;52.078;4.370;2023-05-07T15:24:57;13.68;;;5.65;;
45388;SDS011;31127;52.078;4.370;2023-05-07T15:29:54;13.65;;;6.72;;
45388;SDS011;31127;52.078;4.370;2023-05-07T15:34:50;10.50;;;5.00;;
45388;SDS011;31127;52.078;4.370;2023-05-07T15:40:05;8.57;;;4.65;;
45388;SDS011;31127;52.078;4.370;2023-05-07T15:45:04;11.45;;;6.18;;
45388;SDS011;31127;52.078;4.370;2023-05-07T15:50:00;11.98;;;7.20;;
45388;SDS011;31127;52.078;4.370;2023-05-07T15:54:56;13.82;;;7.97;;
45388;SDS011;31127;52.078;4.370;2023-05-07T15:59:52;16.80;;;8.48;;
45388;SDS011;31127;52.078;4.370;2023-05-07T16:04:48;13.70;;;7.05;;
45388;SDS011;31127;52.078;4.370;2023-05-07T16:09:44;17.30;;;8.23;;
45388;SDS011;31127;52.078;4.370;2023-05-07T16:14:39;19.60;;;10.32;;
45388;SDS011;31127;52.078;4.370;2023-05-07T16:19:35;22.63;;;11.13;;
45388;SDS011;31127;52.078;4.370;2023-05-07T16:24:32;22.77;;;13.25;;
45388;SDS011;31127;52.078;4.370;2023-05-07T16:29:27;24.88;;;13.90;;
45388;SDS011;31127;52.078;4.370;2023-05-07T16:34:23;25.17;;;13.75;;
45388;SDS011;31127;52.078;4.370;2023-05-07T16:39:19;21.73;;;13.77;;
45388;SDS011;31127;52.078;4.370;2023-05-07T16:44:14;26.15;;;15.60;;
45388;SDS011;31127;52.078;4.370;2023-05-07T16:49:30;24.52;;;14.57;;
45388;SDS011;31127;52.078;4.370;2023-05-07T16:54:25;23.67;;;16.20;;
45388;SDS011;31127;52.078;4.370;2023-05-07T16:59:40;23.42;;;15.10;;
45388;SDS011;31127;52.078;4.370;2023-05-07T17:04:36;24.27;;;14.35;;
45388;SDS011;31127;52.078;4.370;2023-05-07T17:09:31;30.38;;;15.23;;
45388;SDS011;31127;52.078;4.370;2023-05-07T17:14:27;23.90;;;12.45;;
45388;SDS011;31127;52.078;4.370;2023-05-07T17:19:23;23.65;;;12.82;;
45388;SDS011;31127;52.078;4.370;2023-05-07T17:24:18;26.75;;;13.88;;
45388;SDS011;31127;52.078;4.370;2023-05-07T17:29:14;20.48;;;13.30;;
45388;SDS011;31127;52.078;4.370;2023-05-07T17:34:09;22.65;;;13.25;;
45388;SDS011;31127;52.078;4.370;2023-05-07T17:39:05;24.67;;;14.95;;
45388;SDS011;31127;52.078;4.370;2023-05-07T17:44:03;25.23;;;16.05;;
45388;SDS011;31127;52.078;4.370;2023-05-07T17:48:59;21.08;;;15.02;;
45388;SDS011;31127;52.078;4.370;2023-05-07T17:53:55;21.27;;;14.88;;
45388;SDS011;31127;52.078;4.370;2023-05-07T17:59:11;22.30;;;14.85;;
45388;SDS011;31127;52.078;4.370;2023-05-07T18:04:07;28.80;;;15.68;;
45388;SDS011;31127;52.078;4.370;2023-05-07T18:09:03;24.50;;;14.02;;
45388;SDS011;31127;52.078;4.370;2023-05-07T18:13:59;21.60;;;14.50;;
45388;SDS011;31127;52.078;4.370;2023-05-07T18:18:55;28.67;;;17.15;;
45388;SDS011;31127;52.078;4.370;2023-05-07T18:23:50;25.25;;;15.80;;
45388;SDS011;31127;52.078;4.370;2023-05-07T18:28:47;27.70;;;16.55;;
45388;SDS011;31127;52.078;4.370;2023-05-07T18:33:43;29.33;;;19.20;;
45388;SDS011;31127;52.078;4.370;2023-05-07T18:38:38;30.17;;;19.75;;
45388;SDS011;31127;52.078;4.370;2023-05-07T18:43:36;26.10;;;17.40;;
45388;SDS011;31127;52.078;4.370;2023-05-07T18:48:32;27.50;;;18.40;;
45388;SDS011;31127;52.078;4.370;2023-05-07T18:53:27;30.83;;;18.70;;
45388;SDS011;31127;52.078;4.370;2023-05-07T18:58:23;28.38;;;18.25;;
45388;SDS011;31127;52.078;4.370;2023-05-07T19:03:18;28.70;;;18.92;;
45388;SDS011;31127;52.078;4.370;2023-05-07T19:08:14;34.47;;;20.35;;
45388;SDS011;31127;52.078;4.370;2023-05-07T19:13:10;33.55;;;17.98;;
45388;SDS011;31127;52.078;4.370;2023-05-07T19:18:05;33.95;;;20.17;;
45388;SDS011;31127;52.078;4.370;2023-05-07T19:23:01;31.65;;;20.83;;
45388;SDS011;31127;52.078;4.370;2023-05-07T19:27:57;35.55;;;21.48;;
45388;SDS011;31127;52.078;4.370;2023-05-07T19:33:00;39.72;;;23.98;;
45388;SDS011;31127;52.078;4.370;2023-05-07T19:37:56;34.27;;;21.53;;
45388;SDS011;31127;52.078;4.370;2023-05-07T19:42:51;37.90;;;21.92;;
45388;SDS011;31127;52.078;4.370;2023-05-07T19:47:47;37.45;;;22.67;;
45388;SDS011;31127;52.078;4.370;2023-05-07T19:52:43;40.25;;;24.00;;
45388;SDS011;31127;52.078;4.370;2023-05-07T19:57:39;40.00;;;22.77;;
45388;SDS011;31127;52.078;4.370;2023-05-07T20:02:35;33.00;;;22.52;;
45388;SDS011;31127;52.078;4.370;2023-05-07T20:07:30;37.50;;;22.08;;
45388;SDS011;31127;52.078;4.370;2023-05-07T20:12:26;38.00;;;23.38;;
45388;SDS011;31127;52.078;4.370;2023-05-07T20:17:21;43.28;;;22.85;;
45388;SDS011;31127;52.078;4.370;2023-05-07T20:22:37;46.50;;;25.80;;
45388;SDS011;31127;52.078;4.370;2023-05-07T20:27:33;41.75;;;23.50;;
45388;SDS011;31127;52.078;4.370;2023-05-07T20:32:29;39.45;;;23.33;;
45388;SDS011;31127;52.078;4.370;2023-05-07T20:37:24;46.60;;;24.42;;
45388;SDS011;31127;52.078;4.370;2023-05-07T20:42:20;37.72;;;23.23;;
45388;SDS011;31127;52.078;4.370;2023-05-07T20:47:16;52.20;;;26.55;;
45388;SDS011;31127;52.078;4.370;2023-05-07T20:52:15;54.38;;;28.98;;
45388;SDS011;31127;52.078;4.370;2023-05-07T20:57:10;48.25;;;27.05;;
45388;SDS011;31127;52.078;4.370;2023-05-07T21:02:12;50.85;;;30.58;;
45388;SDS011;31127;52.078;4.370;2023-05-07T21:07:08;49.70;;;27.27;;
45388;SDS011;31127;52.078;4.370;2023-05-07T21:12:03;44.80;;;27.60;;
45388;SDS011;31127;52.078;4.370;2023-05-07T21:16:59;46.97;;;26.77;;
45388;SDS011;31127;52.078;4.370;2023-05-07T21:22:14;56.17;;;29.38;;
45388;SDS011;31127;52.078;4.370;2023-05-07T21:27:10;49.67;;;28.83;;
45388;SDS011;31127;52.078;4.370;2023-05-07T21:32:05;52.93;;;29.33;;
45388;SDS011;31127;52.078;4.370;2023-05-07T21:37:01;49.42;;;28.98;;
45388;SDS011;31127;52.078;4.370;2023-05-07T21:41:57;48.63;;;27.80;;
45388;SDS011;31127;52.078;4.370;2023-05-07T21:46:52;48.58;;;28.58;;
45388;SDS011;31127;52.078;4.370;2023-05-07T21:51:48;53.70;;;29.80;;
45388;SDS011;31127;52.078;4.370;2023-05-07T21:56:43;53.50;;;29.02;;
45388;SDS011;31127;52.078;4.370;2023-05-07T22:01:39;49.65;;;30.30;;
45388;SDS011;31127;52.078;4.370;2023-05-07T22:06:35;52.88;;;27.70;;
45388;SDS011;31127;52.078;4.370;2023-05-07T22:11:30;47.75;;;27.73;;
45388;SDS011;31127;52.078;4.370;2023-05-07T22:16:46;53.92;;;31.15;;
45388;SDS011;31127;52.078;4.370;2023-05-07T22:21:42;53.92;;;30.10;;
45388;SDS011;31127;52.078;4.370;2023-05-07T22:26:37;55.35;;;28.80;;
45388;SDS011;31127;52.078;4.370;2023-05-07T22:31:33;55.22;;;30.85;;
45388;SDS011;31127;52.078;4.370;2023-05-07T22:36:28;59.07;;;31.67;;
45388;SDS011;31127;52.078;4.370;2023-05-07T22:41:44;61.95;;;32.83;;
45388;SDS011;31127;52.078;4.370;2023-05-07T22:47:01;61.90;;;33.47;;
45388;SDS011;31127;52.078;4.370;2023-05-07T22:51:57;66.07;;;34.60;;
45388;SDS011;31127;52.078;4.370;2023-05-07T22:56:52;59.88;;;33.95;;
45388;SDS011;31127;52.078;4.370;2023-05-07T23:01:48;66.57;;;33.22;;
45388;SDS011;31127;52.078;4.370;2023-05-07T23:06:43;58.67;;;32.40;;
45388;SDS011;31127;52.078;4.370;2023-05-07T23:11:39;65.13;;;31.85;;
45388;SDS011;31127;52.078;4.370;2023-05-07T23:16:34;53.90;;;29.38;;
45388;SDS011;31127;52.078;4.370;2023-05-07T23:21:30;63.83;;;30.80;;
45388;SDS011;31127;52.078;4.370;2023-05-07T23:26:26;59.03;;;29.83;;
45388;SDS011;31127;52.078;4.370;2023-05-07T23:31:33;59.50;;;29.80;;
45388;SDS011;31127;52.078;4.370;2023-05-07T23:36:28;62.15;;;30.85;;
45388;SDS011;31127;52.078;4.370;2023-05-07T23:41:24;58.65;;;30.05;;
45388;SDS011;31127;52.078;4.370;2023-05-07T23:46:19;59.97;;;31.05;;
45388;SDS011;31127;52.078;4.370;2023-05-07T23:51:15;58.78;;;29.83;;
45388;SDS011;31127;52.078;4.370;2023-05-07T23:56:11;56.58;;;28.98;;
